createdAt,value
2023-05-11T00:00:25.408Z,17.15
2023-05-11T00:03:15.402Z,17.16
2023-05-11T00:06:06.543Z,17.19
2023-05-11T00:08:37.621Z,17.23
2023-05-11T00:11:50.198Z,17.27
2023-05-11T00:14:38.758Z,17.24
2023-05-11T00:17:32.653Z,17.24
2023-05-11T00:20:34.594Z,17.25
2023-05-11T00:26:18.428Z,17.26
2023-05-11T00:29:22.228Z,17.24
2023-05-11T00:31:55.356Z,17.18
2023-05-11T00:35:20.566Z,17.14
2023-05-11T00:37:55.289Z,17.14
2023-05-11T00:40:35.320Z,17.17
2023-05-11T00:43:34.641Z,17.18
2023-05-11T00:49:42.098Z,17.17
2023-05-11T00:52:21.995Z,17.16
2023-05-11T00:54:52.280Z,17.13
2023-05-11T00:57:35.245Z,17.12
2023-05-11T01:01:06.090Z,17.13
2023-05-11T01:03:59.610Z,17.14
2023-05-11T01:07:03.362Z,17.14
2023-05-11T01:10:15.027Z,17.15
2023-05-11T01:13:10.929Z,17.15
2023-05-11T01:15:52.385Z,17.20
2023-05-11T01:18:55.092Z,17.21
2023-05-11T01:21:51.481Z,17.21
2023-05-11T01:24:55.777Z,17.17
2023-05-11T01:28:16.420Z,17.13
2023-05-11T01:31:02.697Z,17.12
2023-05-11T01:34:47.174Z,17.11
2023-05-11T01:37:41.819Z,17.11
2023-05-11T01:40:25.420Z,17.16
2023-05-11T01:43:17.669Z,17.16
2023-05-11T01:45:59.756Z,17.13
2023-05-11T01:48:51.060Z,17.16
2023-05-11T01:54:13.505Z,17.20
2023-05-11T01:56:57.359Z,17.23
2023-05-11T02:00:20.783Z,17.24
2023-05-11T02:03:13.047Z,17.25
2023-05-11T02:05:45.753Z,17.22
2023-05-11T02:08:34.733Z,17.21
2023-05-11T02:11:12.597Z,17.18
2023-05-11T02:13:54.019Z,17.17
2023-05-11T02:16:48.736Z,17.18
2023-05-11T02:19:42.060Z,17.08
2023-05-11T02:22:47.126Z,17.11
2023-05-11T02:25:50.579Z,17.10
2023-05-11T02:28:31.555Z,17.11
2023-05-11T02:35:24.498Z,17.13
2023-05-11T02:37:59.426Z,17.13
2023-05-11T02:40:50.580Z,17.16
2023-05-11T02:43:50.601Z,17.13
2023-05-11T02:46:31.312Z,17.16
2023-05-11T02:49:27.369Z,17.20
2023-05-11T02:52:23.519Z,17.20
2023-05-11T02:57:52.303Z,17.12
2023-05-11T03:00:37.786Z,17.08
2023-05-11T03:03:38.145Z,17.09
2023-05-11T03:06:28.084Z,17.07
2023-05-11T03:09:40.014Z,17.07
2023-05-11T03:12:50.601Z,17.01
2023-05-11T03:15:37.814Z,16.92
2023-05-11T03:18:37.754Z,16.92
2023-05-11T03:21:52.444Z,16.85
2023-05-11T03:24:40.512Z,16.79
2023-05-11T03:27:30.245Z,16.75
2023-05-11T03:30:08.011Z,16.71
2023-05-11T03:33:02.103Z,16.69
2023-05-11T03:35:54.534Z,16.67
2023-05-11T03:38:34.214Z,16.64
2023-05-11T03:41:17.014Z,16.63
2023-05-11T03:43:55.611Z,16.58
2023-05-11T03:46:30.800Z,16.58
2023-05-11T03:49:07.705Z,16.61
2023-05-11T03:51:53.658Z,16.66
2023-05-11T03:54:42.729Z,16.68
2023-05-11T03:57:48.210Z,16.71
2023-05-11T04:00:25.686Z,16.69
2023-05-11T04:03:19.546Z,16.70
2023-05-11T04:05:54.737Z,16.63
2023-05-11T04:08:42.499Z,16.58
2023-05-11T04:11:19.144Z,16.57
2023-05-11T04:13:53.792Z,16.59
2023-05-11T04:16:41.477Z,16.64
2023-05-11T04:19:26.780Z,16.67
2023-05-11T04:22:20.541Z,16.69
2023-05-11T04:27:53.890Z,16.61
2023-05-11T04:30:27.755Z,16.57
2023-05-11T04:33:01.296Z,16.55
2023-05-11T04:35:59.489Z,16.51
2023-05-11T04:38:28.901Z,16.45
2023-05-11T04:41:15.051Z,16.44
2023-05-11T04:43:54.003Z,16.37
2023-05-11T04:46:41.281Z,16.39
2023-05-11T04:49:50.618Z,16.40
2023-05-11T04:52:25.726Z,16.40
2023-05-11T05:04:31.800Z,16.54
2023-05-11T05:07:53.148Z,16.57
2023-05-11T05:10:35.143Z,16.57
2023-05-11T05:13:07.003Z,16.61
2023-05-11T05:15:53.210Z,16.68
2023-05-11T05:18:43.687Z,16.77
2023-05-11T05:21:49.190Z,16.87
2023-05-11T05:24:35.922Z,16.90
2023-05-11T05:27:20.569Z,16.94
2023-05-11T05:29:55.317Z,16.96
2023-05-11T05:33:25.630Z,16.95
2023-05-11T05:36:11.995Z,16.90
2023-05-11T05:38:50.641Z,16.90
2023-05-11T05:41:44.654Z,16.97
2023-05-11T05:44:44.681Z,16.99
2023-05-11T05:47:45.940Z,17.01
2023-05-11T05:50:49.695Z,17.08
2023-05-11T05:53:25.187Z,17.13
2023-05-11T05:56:14.596Z,17.20
2023-05-11T05:58:50.563Z,17.28
2023-05-11T06:01:35.239Z,17.35
2023-05-11T06:04:25.442Z,17.43
2023-05-11T06:07:14.910Z,17.46
2023-05-11T06:09:55.587Z,17.43
2023-05-11T06:12:49.030Z,17.38
2023-05-11T06:15:44.589Z,17.40
2023-05-11T06:18:50.618Z,17.38
2023-05-11T06:21:54.641Z,17.35
2023-05-11T06:24:50.641Z,17.34
2023-05-11T06:27:32.572Z,17.34
2023-05-11T06:30:14.619Z,17.33
2023-05-11T06:32:56.496Z,17.26
2023-05-11T06:35:45.701Z,17.22
2023-05-11T06:38:20.676Z,17.23
2023-05-11T06:41:14.670Z,17.20
2023-05-11T06:44:03.260Z,17.12
2023-05-11T06:47:03.323Z,17.16
2023-05-11T06:49:55.842Z,17.25
2023-05-11T06:52:50.624Z,17.36
2023-05-11T06:55:29.567Z,17.42
2023-05-11T06:58:20.773Z,17.47
2023-05-11T07:01:23.512Z,17.46
2023-05-11T07:04:23.499Z,17.43
2023-05-11T07:07:19.400Z,17.48
2023-05-11T07:10:05.219Z,17.54
2023-05-11T07:12:49.298Z,17.69
2023-05-11T07:15:28.651Z,17.83
2023-05-11T07:18:11.441Z,17.94
2023-05-11T07:20:53.328Z,18.06
2023-05-11T07:23:43.218Z,18.07
2023-05-11T07:26:23.442Z,18.02
2023-05-11T07:31:56.212Z,17.83
2023-05-11T07:34:33.181Z,17.77
2023-05-11T07:37:26.144Z,17.65
2023-05-11T07:40:08.269Z,17.60
2023-05-11T07:43:14.570Z,17.53
2023-05-11T07:45:47.539Z,17.53
2023-05-11T07:48:33.702Z,17.59
2023-05-11T07:51:20.591Z,17.60
2023-05-11T07:54:12.016Z,17.45
2023-05-11T07:56:44.995Z,17.51
2023-05-11T07:59:27.251Z,17.54
2023-05-11T08:02:03.807Z,17.66
2023-05-11T08:04:55.435Z,17.70
2023-05-11T08:07:25.911Z,17.67
2023-05-11T08:10:07.683Z,17.68
2023-05-11T08:12:47.093Z,17.67
2023-05-11T08:15:28.345Z,17.70
2023-05-11T08:17:59.729Z,17.63
2023-05-11T08:20:38.369Z,17.64
2023-05-11T08:23:24.741Z,17.74
2023-05-11T08:25:57.237Z,17.77
2023-05-11T08:28:25.802Z,17.91
2023-05-11T08:30:58.561Z,18.06
2023-05-11T08:36:14.036Z,18.55
2023-05-11T08:38:50.607Z,18.71
2023-05-11T08:41:25.842Z,18.76
2023-05-11T08:43:56.085Z,18.67
2023-05-11T08:46:28.890Z,18.68
2023-05-11T08:48:57.339Z,18.66
2023-05-11T08:51:29.395Z,18.63
2023-05-11T08:53:59.839Z,18.60
2023-05-11T08:56:31.717Z,18.63
2023-05-11T08:59:17.100Z,18.71
2023-05-11T09:01:50.588Z,18.76
2023-05-11T09:04:19.588Z,18.87
2023-05-11T09:06:50.591Z,18.96
2023-05-11T09:09:36.292Z,18.94
2023-05-11T09:12:10.488Z,18.78
2023-05-11T09:17:33.271Z,18.89
2023-05-11T09:20:25.470Z,18.86
2023-05-11T09:22:56.438Z,18.83
2023-05-11T09:25:36.771Z,18.88
2023-05-11T09:28:25.468Z,18.91
2023-05-11T09:30:57.961Z,19.00
